createdAt,value
2018-05-10T00:02:04.030Z,15.50
2018-05-10T00:04:31.621Z,15.50
2018-05-10T00:06:59.148Z,18.13
2018-05-10T00:09:26.873Z,23.03
2018-05-10T00:11:54.369Z,13.60
2018-05-10T00:14:22.782Z,15.03
2018-05-10T00:16:50.318Z,17.87
2018-05-10T00:19:18.601Z,14.90
2018-05-10T00:21:46.205Z,8.53
2018-05-10T00:24:13.759Z,10.03
2018-05-10T00:26:41.238Z,10.57
2018-05-10T00:29:09.536Z,16.47
2018-05-10T00:31:37.109Z,20.27
2018-05-10T00:34:05.063Z,14.47
2018-05-10T00:36:32.638Z,11.20
2018-05-10T00:39:00.939Z,15.13
2018-05-10T00:41:28.481Z,13.70
2018-05-10T00:43:56.032Z,16.13
2018-05-10T00:46:23.676Z,14.20
2018-05-10T00:48:51.259Z,11.97
2018-05-10T00:51:18.831Z,16.00
2018-05-10T00:53:46.344Z,13.33
2018-05-10T00:56:13.840Z,24.60
2018-05-10T00:58:42.112Z,13.37
2018-05-10T01:01:10.401Z,14.03
2018-05-10T01:03:38.689Z,12.87
2018-05-10T01:06:06.984Z,15.90
2018-05-10T01:08:35.312Z,16.30
2018-05-10T01:11:02.850Z,15.47
2018-05-10T01:13:31.367Z,11.40
2018-05-10T01:15:58.910Z,11.53
2018-05-10T01:18:27.173Z,14.30
2018-05-10T01:20:54.892Z,14.60
2018-05-10T01:23:22.384Z,17.23
2018-05-10T01:25:49.868Z,17.20
2018-05-10T01:28:17.398Z,14.63
2018-05-10T01:30:45.114Z,18.20
2018-05-10T01:33:12.711Z,11.63
2018-05-10T01:35:52.046Z,13.63
2018-05-10T01:38:19.574Z,15.30
2018-05-10T01:40:47.106Z,14.87
2018-05-10T01:43:14.634Z,12.37
2018-05-10T01:45:42.129Z,12.33
2018-05-10T01:48:09.732Z,13.23
2018-05-10T01:50:37.990Z,13.83
2018-05-10T01:53:05.588Z,19.20
2018-05-10T01:55:33.887Z,18.80
2018-05-10T01:58:02.193Z,19.60
2018-05-10T02:00:29.696Z,15.13
2018-05-10T02:02:57.258Z,27.47
2018-05-10T02:05:24.782Z,19.50
2018-05-10T02:07:53.077Z,14.20
2018-05-10T02:10:20.577Z,16.70
2018-05-10T02:12:48.265Z,18.10
2018-05-10T02:15:15.828Z,11.50
2018-05-10T02:17:43.330Z,19.77
2018-05-10T02:20:10.845Z,17.60
2018-05-10T02:22:38.522Z,15.57
2018-05-10T02:25:06.092Z,14.00
2018-05-10T02:27:33.593Z,21.93
2018-05-10T02:30:01.229Z,18.50
2018-05-10T02:32:28.737Z,18.10
2018-05-10T02:34:56.264Z,17.93
2018-05-10T02:37:24.557Z,16.80
2018-05-10T02:39:53.476Z,16.23
2018-05-10T02:42:21.177Z,13.77
2018-05-10T02:44:48.699Z,15.43
2018-05-10T02:47:16.323Z,17.73
2018-05-10T02:49:43.851Z,17.37
2018-05-10T02:52:12.233Z,17.40
2018-05-10T02:54:40.613Z,18.00
2018-05-10T02:57:08.196Z,19.60
2018-05-10T02:59:36.505Z,17.10
2018-05-10T03:02:04.647Z,13.43
2018-05-10T03:04:32.919Z,16.23
2018-05-10T03:07:00.431Z,18.87
2018-05-10T03:09:27.956Z,12.67
2018-05-10T03:11:55.515Z,11.50
2018-05-10T03:14:23.039Z,14.50
2018-05-10T03:16:51.333Z,12.60
2018-05-10T03:19:19.627Z,18.97
2018-05-10T03:21:47.923Z,13.07
2018-05-10T03:24:15.491Z,17.40
2018-05-10T03:26:43.069Z,18.70
2018-05-10T03:29:11.427Z,15.30
2018-05-10T03:31:38.968Z,15.27
2018-05-10T03:34:06.489Z,15.93
2018-05-10T03:36:34.800Z,15.53
2018-05-10T03:39:02.363Z,14.80
2018-05-10T03:41:29.958Z,12.57
2018-05-10T03:43:57.478Z,12.90
2018-05-10T03:46:25.122Z,17.93
2018-05-10T03:48:52.596Z,15.67
2018-05-10T03:51:20.304Z,20.87
2018-05-10T03:53:48.573Z,22.17
2018-05-10T03:56:16.157Z,11.70
2018-05-10T03:58:44.475Z,18.93
2018-05-10T04:01:12.178Z,19.17
2018-05-10T04:03:51.671Z,11.27
2018-05-10T04:06:31.031Z,14.10
2018-05-10T04:09:11.099Z,20.93
2018-05-10T04:11:39.378Z,13.60
2018-05-10T04:14:07.660Z,17.30
2018-05-10T04:16:35.335Z,15.13
2018-05-10T04:19:02.926Z,10.97
2018-05-10T04:21:31.212Z,13.60
2018-05-10T04:23:59.620Z,12.97
2018-05-10T04:26:27.178Z,13.10
2018-05-10T04:28:55.560Z,19.60
2018-05-10T04:31:23.859Z,15.90
2018-05-10T04:33:51.420Z,11.50
2018-05-10T04:36:19.655Z,16.27
2018-05-10T04:38:47.355Z,13.73
2018-05-10T04:41:14.853Z,18.73
2018-05-10T04:43:42.385Z,16.60
2018-05-10T04:46:09.895Z,16.57
2018-05-10T04:48:38.198Z,20.83
2018-05-10T04:51:05.987Z,14.53
2018-05-10T04:53:33.509Z,14.00
2018-05-10T04:56:01.065Z,15.80
2018-05-10T04:58:28.665Z,20.90
2018-05-10T05:00:56.433Z,14.53
2018-05-10T05:03:24.062Z,13.20
2018-05-10T05:05:52.489Z,14.70
2018-05-10T05:08:20.202Z,11.97
2018-05-10T05:10:48.476Z,14.00
2018-05-10T05:13:16.735Z,15.90
2018-05-10T05:15:44.445Z,12.70
2018-05-10T05:18:12.785Z,17.03
2018-05-10T05:20:40.493Z,14.10
2018-05-10T05:23:08.459Z,13.97
2018-05-10T05:25:36.594Z,10.30
2018-05-10T05:28:04.133Z,12.63
2018-05-10T05:30:31.676Z,17.90
2018-05-10T05:32:59.223Z,14.70
2018-05-10T05:35:26.815Z,17.70
2018-05-10T05:37:54.333Z,18.63
2018-05-10T05:40:22.767Z,13.80
2018-05-10T05:42:50.401Z,14.57
2018-05-10T05:45:18.674Z,14.20
2018-05-10T05:47:46.219Z,15.00
2018-05-10T05:50:14.217Z,14.37
2018-05-10T05:52:41.969Z,13.90
2018-05-10T05:55:09.613Z,17.43
2018-05-10T05:57:37.120Z,17.27
2018-05-10T06:00:04.698Z,18.00
2018-05-10T06:02:32.247Z,18.80
2018-05-10T06:04:59.879Z,17.77
2018-05-10T06:07:28.147Z,18.10
2018-05-10T06:09:56.258Z,12.37
2018-05-10T06:12:23.818Z,13.33
2018-05-10T06:14:51.393Z,13.50
2018-05-10T06:17:19.656Z,14.13
2018-05-10T06:19:48.192Z,16.23
2018-05-10T06:22:15.898Z,15.33
2018-05-10T06:24:43.528Z,10.40
2018-05-10T06:27:10.984Z,15.70
2018-05-10T06:29:38.532Z,17.47
2018-05-10T06:32:06.659Z,20.63
2018-05-10T06:34:34.335Z,15.57
2018-05-10T06:37:02.592Z,12.87
2018-05-10T06:39:30.209Z,18.93
2018-05-10T06:41:58.559Z,22.53
2018-05-10T06:44:26.163Z,15.17
2018-05-10T06:46:53.926Z,18.63
2018-05-10T06:49:21.525Z,11.90
2018-05-10T06:51:49.046Z,13.20
2018-05-10T06:54:16.543Z,17.87
2018-05-10T06:56:44.181Z,14.57
2018-05-10T06:59:11.678Z,15.47
2018-05-10T07:01:39.976Z,15.90
2018-05-10T07:04:07.538Z,13.40
2018-05-10T07:06:35.805Z,18.10
2018-05-10T07:09:03.405Z,17.30
2018-05-10T07:11:31.037Z,23.43
2018-05-10T07:13:58.573Z,23.53
2018-05-10T07:16:26.099Z,13.67
2018-05-10T07:18:54.406Z,15.40
2018-05-10T07:21:21.999Z,19.10
2018-05-10T07:23:49.628Z,12.53
2018-05-10T07:26:17.244Z,17.20
2018-05-10T07:28:44.763Z,19.67
2018-05-10T07:31:12.260Z,14.70
2018-05-10T07:33:40.548Z,14.60
2018-05-10T07:36:08.831Z,20.77
2018-05-10T07:38:36.354Z,13.67
2018-05-10T07:41:03.861Z,21.07
2018-05-10T07:43:31.473Z,13.20
2018-05-10T07:45:58.988Z,14.70
2018-05-10T07:48:26.601Z,15.60
2018-05-10T07:50:54.856Z,12.93
2018-05-10T07:53:23.379Z,13.97
2018-05-10T07:55:51.008Z,16.57
2018-05-10T07:58:18.598Z,17.50
2018-05-10T08:00:46.137Z,14.93
2018-05-10T08:03:13.864Z,18.10
2018-05-10T08:05:42.164Z,17.77
2018-05-10T08:08:10.421Z,18.00
2018-05-10T08:10:37.996Z,11.20
2018-05-10T08:13:05.617Z,12.43
2018-05-10T08:15:33.268Z,18.97
2018-05-10T08:18:00.786Z,15.97
2018-05-10T08:20:28.363Z,19.67
2018-05-10T08:22:55.960Z,20.50
2018-05-10T08:25:23.554Z,13.63
2018-05-10T08:27:51.127Z,22.03
2018-05-10T08:30:19.575Z,12.70
2018-05-10T08:32:47.167Z,15.53
2018-05-10T08:35:14.701Z,13.97
2018-05-10T08:37:42.225Z,18.47
2018-05-10T08:40:10.530Z,15.33
2018-05-10T08:42:38.965Z,12.27
2018-05-10T08:45:06.500Z,16.20
2018-05-10T08:47:34.003Z,12.73
2018-05-10T08:50:01.599Z,15.00
2018-05-10T08:52:29.536Z,16.03
2018-05-10T08:54:57.293Z,15.70
2018-05-10T08:57:24.823Z,11.07
2018-05-10T08:59:52.473Z,15.13
2018-05-10T09:02:19.935Z,10.70
2018-05-10T09:04:47.555Z,15.13
2018-05-10T09:07:16.036Z,14.07
2018-05-10T09:09:43.582Z,14.67
2018-05-10T09:12:11.191Z,16.30
2018-05-10T09:14:40.233Z,20.53
2018-05-10T09:17:07.879Z,11.30
2018-05-10T09:19:36.189Z,13.53
2018-05-10T09:22:03.772Z,15.10
2018-05-10T09:24:31.362Z,18.43
2018-05-10T09:26:59.065Z,14.10
2018-05-10T09:29:26.576Z,16.67
2018-05-10T09:31:54.213Z,13.57
2018-05-10T09:34:21.867Z,10.17
2018-05-10T09:36:49.996Z,16.67
2018-05-10T09:39:17.653Z,18.23
2018-05-10T09:41:45.405Z,13.93
2018-05-10T09:44:12.975Z,13.30
2018-05-10T09:46:40.620Z,13.43
2018-05-10T09:49:08.281Z,15.03
2018-05-10T09:51:35.853Z,11.17
2018-05-10T09:54:03.388Z,10.57
2018-05-10T09:56:31.866Z,15.40
2018-05-10T09:58:59.740Z,13.77
2018-05-10T10:01:27.361Z,19.07
2018-05-10T10:03:55.860Z,15.30
2018-05-10T10:06:23.363Z,12.77
2018-05-10T10:08:50.987Z,14.63
2018-05-10T10:11:19.330Z,15.60
2018-05-10T10:13:46.986Z,19.50
2018-05-10T10:16:14.535Z,13.13
2018-05-10T10:18:42.100Z,13.20
2018-05-10T10:21:10.399Z,17.13
2018-05-10T10:23:37.998Z,15.67
2018-05-10T10:26:05.519Z,24.10
2018-05-10T10:28:33.794Z,18.13
2018-05-10T10:31:01.442Z,9.80
2018-05-10T10:33:28.994Z,13.37
2018-05-10T10:35:56.552Z,18.73
2018-05-10T10:38:24.075Z,26.17
2018-05-10T10:40:51.744Z,17.07
2018-05-10T10:43:19.233Z,18.70
2018-05-10T10:45:47.537Z,17.50
2018-05-10T10:48:15.850Z,16.97
2018-05-10T10:50:43.400Z,13.60
2018-05-10T10:53:11.727Z,13.17
2018-05-10T10:55:39.259Z,12.57
2018-05-10T10:58:07.568Z,10.47
2018-05-10T11:00:35.094Z,11.20
2018-05-10T11:03:02.685Z,18.77
2018-05-10T11:05:31.003Z,18.73
2018-05-10T11:07:58.523Z,14.47
2018-05-10T11:10:27.327Z,17.03
2018-05-10T11:12:54.888Z,10.60
2018-05-10T11:15:22.407Z,14.37
2018-05-10T11:17:50.045Z,10.80
2018-05-10T11:20:17.576Z,16.53
2018-05-10T11:22:45.172Z,9.33
2018-05-10T11:25:12.697Z,17.27
2018-05-10T11:27:40.217Z,24.50
2018-05-10T11:30:08.629Z,14.63
2018-05-10T11:32:36.911Z,16.53
2018-05-10T11:35:04.462Z,13.63
2018-05-10T11:37:32.687Z,14.80
2018-05-10T11:40:01.004Z,11.87
2018-05-10T11:42:28.517Z,14.73
2018-05-10T11:44:56.036Z,13.67
2018-05-10T11:47:23.576Z,16.53
2018-05-10T11:49:51.954Z,15.70
2018-05-10T11:52:19.453Z,15.87
2018-05-10T11:54:47.844Z,19.53
2018-05-10T11:57:16.148Z,17.10
2018-05-10T11:59:43.684Z,13.23
2018-05-10T12:02:11.986Z,14.73
2018-05-10T12:04:40.266Z,13.83
2018-05-10T12:07:08.628Z,16.90
2018-05-10T12:09:36.247Z,21.03
2018-05-10T12:12:03.824Z,12.50
2018-05-10T12:14:31.502Z,13.63
2018-05-10T12:16:59.004Z,15.87
2018-05-10T12:19:26.547Z,16.30
2018-05-10T12:21:54.178Z,18.10
2018-05-10T12:24:21.686Z,22.00
2018-05-10T12:26:49.430Z,13.07
2018-05-10T12:29:17.001Z,12.10
2018-05-10T12:31:44.606Z,15.43
2018-05-10T12:34:13.158Z,14.60
2018-05-10T12:36:40.769Z,17.80
2018-05-10T12:39:08.452Z,27.53
2018-05-10T12:41:36.028Z,17.50
2018-05-10T12:44:03.804Z,18.87
2018-05-10T12:46:31.366Z,14.37
2018-05-10T12:48:59.057Z,11.87
2018-05-10T12:51:26.555Z,21.20
2018-05-10T12:53:55.074Z,12.10
2018-05-10T12:56:22.799Z,22.20
2018-05-10T12:58:50.465Z,17.97
2018-05-10T13:01:18.004Z,20.53
2018-05-10T13:06:19.330Z,14.27
2018-05-10T13:08:46.844Z,19.63
2018-05-10T13:11:14.344Z,14.13
2018-05-10T13:13:42.741Z,14.40
2018-05-10T13:16:11.071Z,24.00
2018-05-10T13:18:38.577Z,14.27
2018-05-10T13:21:06.283Z,12.70
2018-05-10T13:23:33.790Z,19.10
2018-05-10T13:26:01.324Z,19.07
2018-05-10T13:28:28.884Z,12.00
2018-05-10T13:30:56.440Z,17.40
2018-05-10T13:33:24.758Z,16.57
2018-05-10T13:35:52.391Z,20.17
2018-05-10T13:38:20.009Z,19.73
2018-05-10T13:40:47.676Z,14.83
2018-05-10T13:43:15.182Z,8.83
2018-05-10T13:45:42.704Z,16.93
2018-05-10T13:48:11.109Z,16.90
2018-05-10T13:50:38.712Z,16.67
2018-05-10T13:53:06.306Z,10.53
2018-05-10T13:55:33.808Z,21.90
2018-05-10T13:58:02.225Z,14.20
2018-05-10T14:00:29.804Z,15.37
2018-05-10T14:02:57.433Z,11.50
2018-05-10T14:05:26.151Z,11.80
2018-05-10T14:07:53.637Z,8.47
2018-05-10T14:10:21.186Z,14.07
2018-05-10T14:12:48.974Z,14.63
2018-05-10T14:15:16.924Z,12.47
2018-05-10T14:17:44.504Z,13.67
2018-05-10T14:20:12.975Z,12.93
2018-05-10T14:22:40.483Z,13.30
2018-05-10T14:25:08.061Z,12.17
2018-05-10T14:27:35.571Z,13.33
2018-05-10T14:30:03.199Z,12.40
2018-05-10T14:32:30.767Z,10.10
2018-05-10T14:34:58.288Z,14.40
2018-05-10T14:37:26.486Z,14.40
2018-05-10T14:39:53.977Z,16.43
2018-05-10T14:42:22.278Z,14.70
2018-05-10T14:44:50.575Z,15.67
2018-05-10T14:47:18.159Z,10.47
2018-05-10T14:49:45.800Z,15.43
2018-05-10T14:52:14.084Z,12.80
2018-05-10T14:54:42.351Z,9.73
2018-05-10T14:57:09.962Z,10.17
2018-05-10T14:59:38.255Z,15.53
2018-05-10T15:02:06.862Z,14.13
2018-05-10T15:04:34.431Z,11.67
2018-05-10T15:07:01.959Z,12.87
2018-05-10T15:09:29.679Z,13.60
2018-05-10T15:11:57.217Z,17.03
2018-05-10T15:14:24.824Z,13.07
2018-05-10T15:16:52.344Z,9.40
2018-05-10T15:19:19.872Z,11.57
2018-05-10T15:21:47.394Z,10.93
2018-05-10T15:24:15.402Z,11.33
2018-05-10T15:26:43.706Z,14.40
2018-05-10T15:29:11.342Z,14.63
2018-05-10T15:31:39.089Z,11.90
2018-05-10T15:34:07.383Z,15.10
2018-05-10T15:36:35.003Z,11.57
2018-05-10T15:39:03.305Z,12.50
2018-05-10T15:41:30.859Z,14.43
2018-05-10T15:43:59.163Z,10.80
2018-05-10T15:46:26.725Z,13.10
2018-05-10T15:48:54.221Z,11.83
2018-05-10T15:51:21.779Z,18.23
2018-05-10T15:53:49.310Z,19.67
2018-05-10T15:56:16.833Z,25.10
2018-05-10T15:58:44.425Z,12.17
2018-05-10T16:01:13.103Z,12.63
2018-05-10T16:03:40.605Z,12.43
2018-05-10T16:06:08.115Z,16.40
2018-05-10T16:08:35.641Z,11.70
2018-05-10T16:11:03.221Z,15.30
2018-05-10T16:13:31.523Z,15.67
2018-05-10T16:15:59.037Z,11.27
2018-05-10T16:18:26.985Z,12.77
2018-05-10T16:20:55.291Z,18.00
2018-05-10T16:23:22.855Z,12.77
2018-05-10T16:25:51.184Z,11.83
2018-05-10T16:28:18.749Z,12.13
2018-05-10T16:30:46.316Z,10.17
2018-05-10T16:33:13.827Z,10.40
2018-05-10T16:35:41.446Z,6.33
2018-05-10T16:38:09.046Z,7.70
2018-05-10T16:40:36.583Z,11.33
2018-05-10T16:43:04.168Z,10.63
2018-05-10T16:45:31.828Z,9.53
2018-05-10T16:47:59.455Z,7.40
2018-05-10T16:50:26.983Z,8.77
2018-05-10T16:52:54.544Z,8.30
2018-05-10T16:55:22.130Z,13.10
2018-05-10T16:57:49.751Z,11.30
2018-05-10T17:00:18.084Z,15.80
2018-05-10T17:02:46.190Z,9.70
2018-05-10T17:05:13.738Z,6.47
2018-05-10T17:07:41.252Z,8.53
2018-05-10T17:10:08.791Z,16.27
2018-05-10T17:12:36.884Z,9.60
2018-05-10T17:15:05.308Z,7.93
2018-05-10T17:17:33.144Z,11.90
2018-05-10T17:20:00.650Z,11.60
2018-05-10T17:22:28.184Z,12.33
2018-05-10T17:24:55.935Z,12.60
2018-05-10T17:27:23.457Z,9.60
2018-05-10T17:29:51.110Z,15.80
2018-05-10T17:32:18.669Z,11.77
2018-05-10T17:34:47.063Z,14.10
2018-05-10T17:37:14.616Z,14.40
2018-05-10T17:39:43.480Z,12.50
2018-05-10T17:42:11.004Z,14.60
2018-05-10T17:44:38.528Z,16.60
2018-05-10T17:47:06.166Z,13.23
2018-05-10T17:49:33.706Z,11.20
2018-05-10T17:52:02.001Z,13.40
2018-05-10T17:54:30.255Z,11.07
2018-05-10T17:56:58.600Z,14.10
2018-05-10T17:59:26.143Z,18.20
2018-05-10T18:01:54.455Z,12.07
2018-05-10T18:04:21.983Z,13.83
2018-05-10T18:06:49.551Z,11.90
2018-05-10T18:09:17.680Z,12.13
2018-05-10T18:11:45.228Z,11.27
2018-05-10T18:14:13.499Z,21.47
2018-05-10T18:16:41.210Z,17.80
2018-05-10T18:19:08.778Z,22.60
2018-05-10T18:21:36.286Z,21.03
2018-05-10T18:24:03.995Z,26.83
2018-05-10T18:26:32.387Z,24.03
2018-05-10T18:29:00.076Z,30.90
2018-05-10T18:31:28.360Z,31.13
2018-05-10T18:33:56.768Z,31.40
2018-05-10T18:36:24.962Z,35.43
2018-05-10T18:38:52.518Z,31.60
2018-05-10T18:41:20.847Z,37.33
2018-05-10T18:43:48.451Z,35.07
2018-05-10T18:46:15.991Z,32.47
2018-05-10T18:48:43.539Z,30.97
2018-05-10T18:51:11.079Z,36.33
2018-05-10T18:53:39.383Z,35.27
2018-05-10T18:56:06.941Z,32.50
2018-05-10T18:58:35.246Z,29.10
2018-05-10T19:01:03.597Z,31.20
2018-05-10T19:03:31.198Z,31.87
2018-05-10T19:05:59.516Z,33.00
2018-05-10T19:08:27.036Z,26.90
2018-05-10T19:10:54.675Z,25.57
2018-05-10T19:13:22.317Z,34.50
2018-05-10T19:15:49.957Z,24.90
2018-05-10T19:18:17.503Z,33.77
2018-05-10T19:20:45.768Z,24.47
2018-05-10T19:23:13.324Z,26.53
2018-05-10T19:25:40.857Z,24.30
2018-05-10T19:28:08.446Z,22.43
2018-05-10T19:30:36.743Z,23.20
2018-05-10T19:33:04.358Z,21.70
2018-05-10T19:35:31.872Z,21.07
2018-05-10T19:37:59.422Z,27.10
2018-05-10T19:40:27.046Z,21.77
2018-05-10T19:42:54.608Z,21.03
2018-05-10T19:45:22.955Z,19.40
2018-05-10T19:47:50.469Z,31.67
2018-05-10T19:50:18.201Z,20.73
2018-05-10T19:52:45.724Z,20.13
2018-05-10T19:55:13.299Z,20.90
2018-05-10T19:57:40.969Z,26.37
2018-05-10T20:00:08.492Z,21.40
2018-05-10T20:02:36.173Z,23.33
2018-05-10T20:05:03.879Z,29.00
2018-05-10T20:07:32.257Z,23.80
2018-05-10T20:10:00.768Z,22.67
2018-05-10T20:12:28.325Z,24.93
2018-05-10T20:14:55.862Z,23.07
2018-05-10T20:17:23.395Z,22.80
2018-05-10T20:19:50.941Z,23.97
2018-05-10T20:22:19.253Z,21.17
2018-05-10T20:24:46.816Z,25.03
2018-05-10T20:27:14.426Z,19.13
2018-05-10T20:29:42.223Z,28.00
2018-05-10T20:32:09.853Z,22.50
2018-05-10T20:34:37.418Z,20.13
2018-05-10T20:37:04.987Z,25.90
2018-05-10T20:39:32.549Z,21.17
2018-05-10T20:42:00.061Z,20.63
2018-05-10T20:44:27.852Z,20.50
2018-05-10T20:46:55.486Z,19.80
2018-05-10T20:49:22.997Z,20.40
2018-05-10T20:51:50.613Z,21.10
2018-05-10T20:54:18.137Z,27.30
2018-05-10T20:56:45.759Z,27.03
2018-05-10T20:59:13.278Z,23.07
2018-05-10T21:01:40.851Z,23.53
2018-05-10T21:04:08.378Z,26.40
2018-05-10T21:06:35.905Z,26.80
2018-05-10T21:09:03.442Z,24.90
2018-05-10T21:11:30.987Z,21.07
2018-05-10T21:13:58.554Z,27.53
2018-05-10T21:16:26.237Z,26.87
2018-05-10T21:18:53.677Z,22.50
2018-05-10T21:21:21.225Z,22.00
2018-05-10T21:23:48.838Z,24.70
2018-05-10T21:26:17.286Z,22.93
2018-05-10T21:28:44.841Z,31.10
2018-05-10T21:31:12.499Z,25.17
2018-05-10T21:33:40.135Z,30.00
2018-05-10T21:36:08.408Z,23.47
2018-05-10T21:38:36.006Z,28.37
2018-05-10T21:41:04.304Z,26.53
2018-05-10T21:43:31.913Z,32.00
2018-05-10T21:45:59.485Z,29.90
2018-05-10T21:48:27.032Z,29.07
2018-05-10T21:50:54.560Z,30.77
2018-05-10T21:53:22.357Z,27.47
2018-05-10T21:55:49.816Z,32.17
2018-05-10T21:58:18.137Z,29.93
2018-05-10T22:00:45.634Z,29.07
2018-05-10T22:03:13.248Z,28.10
2018-05-10T22:05:41.545Z,26.90
2018-05-10T22:08:09.111Z,29.67
2018-05-10T22:10:37.381Z,28.70
2018-05-10T22:13:04.923Z,25.00
2018-05-10T22:15:32.461Z,30.10
2018-05-10T22:18:00.008Z,25.57
2018-05-10T22:20:28.304Z,26.80
2018-05-10T22:22:56.818Z,26.37
2018-05-10T22:25:24.696Z,26.07
2018-05-10T22:27:52.192Z,28.50
2018-05-10T22:30:19.732Z,28.23
2018-05-10T22:32:47.376Z,29.90
2018-05-10T22:35:15.040Z,28.50
2018-05-10T22:37:42.492Z,29.10
2018-05-10T22:40:10.081Z,32.97
2018-05-10T22:42:39.215Z,29.87
2018-05-10T22:45:07.503Z,29.87
2018-05-10T22:47:35.778Z,30.47
2018-05-10T22:50:03.588Z,34.27
2018-05-10T22:52:31.269Z,26.37
2018-05-10T22:54:58.778Z,39.33
2018-05-10T22:57:26.334Z,36.60
2018-05-10T22:59:54.642Z,35.07
2018-05-10T23:02:22.314Z,27.90
2018-05-10T23:04:49.838Z,33.40
2018-05-10T23:07:17.336Z,32.17
2018-05-10T23:09:44.967Z,34.67
2018-05-10T23:12:12.549Z,28.60
2018-05-10T23:14:40.197Z,34.83
2018-05-10T23:17:07.869Z,44.57
2018-05-10T23:19:35.431Z,30.77
2018-05-10T23:22:03.262Z,32.23
2018-05-10T23:24:31.816Z,32.20
2018-05-10T23:27:00.330Z,27.00
2018-05-10T23:29:27.957Z,32.73
2018-05-10T23:31:55.557Z,32.60
2018-05-10T23:34:23.999Z,36.13
2018-05-10T23:36:51.648Z,35.30
2018-05-10T23:39:19.253Z,33.77
2018-05-10T23:41:46.810Z,33.53
2018-05-10T23:44:14.362Z,35.97
2018-05-10T23:46:42.038Z,35.10
2018-05-10T23:49:09.555Z,30.07
2018-05-10T23:51:37.103Z,29.97
2018-05-10T23:54:04.637Z,32.87
2018-05-10T23:56:33.177Z,30.73
2018-05-10T23:59:00.671Z,31.60
